Time;durP1;ratioP1;P1;durP2;ratioP2;P2;SDS_P1;SDS_P2;PMS_P1;PMS_P2;Temp;Humidity;BMP_temperature;BMP_pressure;BME280_temperature;BME280_humidity;BME280_pressure;Samples;Min_cycle;Max_cycle;Signal;HPM_P1;HPM_P2
2022/12/16 00:00:24;;;;;;;12.50;7.83;;;4.70;93.00;;;;;;5030260;28;20037;-77
2022/12/16 00:02:50;;;;;;;14.07;8.67;;;4.80;93.20;;;;;;5029464;28;20041;-78
2022/12/16 00:05:16;;;;;;;12.40;8.40;;;4.80;93.10;;;;;;5028486;28;20702;-79
2022/12/16 00:07:42;;;;;;;14.05;8.77;;;4.80;93.10;;;;;;5021496;28;20026;-80
2022/12/16 00:10:08;;;;;;;14.57;8.13;;;4.70;93.10;;;;;;5028401;28;20037;-76
2022/12/16 00:12:33;;;;;;;12.15;7.35;;;4.70;93.20;;;;;;5030946;28;20116;-77
2022/12/16 00:14:59;;;;;;;15.33;8.50;;;4.70;93.30;;;;;;5030612;28;20164;-78
2022/12/16 00:17:24;;;;;;;15.10;8.43;;;4.80;93.20;;;;;;5031084;28;20053;-79
2022/12/16 00:19:50;;;;;;;14.02;8.60;;;4.80;93.30;;;;;;5029107;28;20152;-78
2022/12/16 00:22:16;;;;;;;14.53;9.00;;;4.80;93.30;;;;;;5031003;28;20040;-78
2022/12/16 00:24:41;;;;;;;14.40;8.60;;;4.80;93.50;;;;;;5028349;28;20053;-78
2022/12/16 00:27:07;;;;;;;16.97;9.83;;;4.80;93.60;;;;;;5030758;28;20030;-79
2022/12/16 00:29:33;;;;;;;14.00;9.00;;;4.80;93.60;;;;;;5029722;28;20410;-76
2022/12/16 00:31:59;;;;;;;15.47;9.80;;;4.70;93.50;;;;;;5030236;28;20033;-79
2022/12/16 00:34:24;;;;;;;16.07;10.00;;;4.70;93.50;;;;;;5030280;28;20029;-79
2022/12/16 00:36:50;;;;;;;19.30;11.43;;;4.70;93.50;;;;;;5029752;28;20952;-78
2022/12/16 00:39:16;;;;;;;19.80;11.25;;;4.70;93.50;;;;;;5029682;28;20036;-75
2022/12/16 00:41:41;;;;;;;18.63;9.90;;;4.70;93.70;;;;;;5032676;28;20083;-79
2022/12/16 00:44:08;;;;;;;18.77;11.13;;;4.70;93.80;;;;;;5031814;28;20417;-80
2022/12/16 00:46:33;;;;;;;21.17;11.13;;;4.70;93.40;;;;;;5034617;28;20148;-78
2022/12/16 00:48:59;;;;;;;19.97;11.90;;;4.70;93.60;;;;;;5033359;28;20476;-79
2022/12/16 00:51:24;;;;;;;19.67;10.67;;;4.70;93.20;;;;;;5033287;28;20291;-79
2022/12/16 00:53:50;;;;;;;19.10;11.70;;;4.70;93.20;;;;;;5032350;28;20025;-78
2022/12/16 00:56:19;;;;;;;19.52;10.95;;;4.60;93.30;;;;;;5034829;28;20120;-78
2022/12/16 00:58:45;;;;;;;19.77;11.43;;;4.70;93.40;;;;;;5032611;28;20068;-78
2022/12/16 01:01:11;;;;;;;19.52;10.75;;;4.60;93.20;;;;;;5034393;28;20060;-78
2022/12/16 01:03:37;;;;;;;17.90;10.60;;;4.60;93.20;;;;;;5032443;28;20126;-77
2022/12/16 01:06:14;;;;;;;20.00;11.35;;;4.60;93.10;;;;;;5034069;28;20307;-78
2022/12/16 01:08:47;;;;;;;18.60;10.98;;;4.70;92.80;;;;;;5032364;28;20069;-78
2022/12/16 01:11:17;;;;;;;17.42;9.88;;;4.70;92.90;;;;;;5033020;28;20048;-77
2022/12/16 01:13:43;;;;;;;17.85;10.90;;;4.70;92.90;;;;;;5029623;28;20028;-75
2022/12/16 01:16:08;;;;;;;18.75;9.88;;;4.70;92.80;;;;;;5033735;28;20112;-75
2022/12/16 01:18:34;;;;;;;22.27;11.53;;;4.70;92.90;;;;;;5034203;28;20031;-76
2022/12/16 01:21:07;;;;;;;18.27;10.85;;;4.60;92.90;;;;;;5033747;28;20493;-78
2022/12/16 01:23:33;;;;;;;17.67;10.75;;;4.70;92.90;;;;;;5033807;28;20025;-77
2022/12/16 01:26:00;;;;;;;16.08;9.93;;;4.60;93.00;;;;;;5032176;28;20260;-77
2022/12/16 01:28:29;;;;;;;;;;;4.60;93.10;;;;;;5034867;28;20026;-77
2022/12/16 01:30:56;;;;;;;22.33;11.75;;;4.60;93.20;;;;;;5065702;28;20332;-76
2022/12/16 01:33:23;;;;;;;18.80;10.13;;;4.60;93.60;;;;;;5033457;28;20025;-75
2022/12/16 01:35:48;;;;;;;17.75;10.43;;;4.50;93.20;;;;;;5033821;28;20025;-76
2022/12/16 01:38:14;;;;;;;15.83;9.57;;;4.50;92.90;;;;;;5034264;28;20034;-75
2022/12/16 01:40:40;;;;;;;17.75;10.20;;;4.50;92.70;;;;;;5032081;28;20041;-78
2022/12/16 01:43:11;;;;;;;14.83;8.90;;;4.50;92.90;;;;;;5033568;28;20029;-80
2022/12/16 01:45:38;;;;;;;14.18;8.52;;;4.50;92.80;;;;;;5032915;28;20033;-76
2022/12/16 01:48:29;;;;;;;;;;;4.40;92.60;;;;;;5033308;28;20076;-77
2022/12/16 01:51:02;;;;;;;12.63;7.65;;;4.40;92.50;;;;;;5033061;28;20348;-75
2022/12/16 01:53:29;;;;;;;13.98;8.18;;;4.40;92.80;;;;;;5032718;28;20021;-79
2022/12/16 01:55:55;;;;;;;14.63;8.20;;;4.50;92.60;;;;;;5031774;28;20045;-76
2022/12/16 01:58:28;;;;;;;13.23;8.38;;;4.40;92.60;;;;;;5033273;28;20021;-77
2022/12/16 02:00:54;;;;;;;13.65;8.02;;;4.40;92.40;;;;;;5032755;28;20068;-78
2022/12/16 02:03:20;;;;;;;16.13;9.10;;;4.40;92.70;;;;;;5033134;28;20379;-76
2022/12/16 02:05:47;;;;;;;15.02;9.02;;;4.40;92.80;;;;;;5033319;28;20452;-79
2022/12/16 02:08:15;;;;;;;20.52;10.25;;;4.40;93.00;;;;;;5033103;28;20032;-79
2022/12/16 02:10:41;;;;;;;15.13;9.60;;;4.40;92.90;;;;;;5031201;28;20508;-76
2022/12/16 02:13:22;;;;;;;16.03;9.23;;;4.50;92.70;;;;;;5030591;28;20068;-76
2022/12/16 02:16:01;;;;;;;17.15;10.07;;;4.50;92.90;;;;;;5040801;28;20029;-78
2022/12/16 02:19:01;;;;;;;17.65;10.30;;;4.40;93.10;;;;;;5032279;28;20103;-75
2022/12/16 02:21:59;;;;;;;20.20;9.70;;;4.40;93.30;;;;;;5033143;28;20417;-76
2022/12/16 02:24:49;;;;;;;17.48;10.35;;;4.40;93.20;;;;;;5027566;28;20030;-76
2022/12/16 02:27:46;;;;;;;24.90;11.32;;;4.40;93.40;;;;;;5029827;28;20493;-77
2022/12/16 02:30:44;;;;;;;22.27;12.23;;;4.40;93.20;;;;;;5031424;28;20029;-75
2022/12/16 02:33:24;;;;;;;20.45;11.55;;;4.40;93.30;;;;;;5041674;28;20045;-76
2022/12/16 02:35:59;;;;;;;19.13;10.93;;;4.40;93.20;;;;;;5025779;28;20026;-77
2022/12/16 02:38:42;;;;;;;22.95;12.40;;;4.30;92.90;;;;;;5031608;28;20092;-75
2022/12/16 02:41:43;;;;;;;23.25;12.57;;;4.30;93.10;;;;;;5030152;28;20041;-77
2022/12/16 02:44:10;;;;;;;20.00;12.30;;;4.20;93.00;;;;;;5028888;28;20033;-77
2022/12/16 02:46:41;;;;;;;23.55;12.73;;;4.30;93.10;;;;;;5030861;28;20032;-75
2022/12/16 02:49:28;;;;;;;21.45;12.30;;;4.30;93.10;;;;;;5030428;28;20073;-76
2022/12/16 02:51:55;;;;;;;27.67;14.05;;;4.20;93.00;;;;;;5024352;28;20027;-75
2022/12/16 02:54:21;;;;;;;31.30;16.13;;;4.00;93.20;;;;;;5045484;28;20053;-77
2022/12/16 02:56:47;;;;;;;34.05;17.05;;;4.00;93.50;;;;;;5030871;28;20030;-77
2022/12/16 02:59:31;;;;;;;33.20;16.20;;;4.00;93.40;;;;;;5031588;28;20032;-78
2022/12/16 03:02:06;;;;;;;33.70;17.63;;;4.10;92.90;;;;;;5026244;28;20057;-78
2022/12/16 03:04:47;;;;;;;35.88;17.30;;;4.00;93.20;;;;;;5029213;28;20146;-79
2022/12/16 03:07:16;;;;;;;49.25;20.58;;;4.10;93.50;;;;;;5031142;28;20408;-78
2022/12/16 03:09:44;;;;;;;171.85;56.65;;;4.00;93.50;;;;;;5031276;28;20030;-77
2022/12/16 03:12:13;;;;;;;67.80;34.47;;;3.90;93.30;;;;;;5029714;28;20504;-76
2022/12/16 03:14:43;;;;;;;59.83;25.45;;;4.00;93.30;;;;;;5030226;28;20032;-76
2022/12/16 03:17:11;;;;;;;55.60;25.00;;;4.00;93.30;;;;;;5031473;28;20041;-75
2022/12/16 03:19:40;;;;;;;53.28;25.90;;;4.00;93.20;;;;;;5029783;28;20497;-76
2022/12/16 03:22:11;;;;;;;62.03;26.33;;;4.00;93.30;;;;;;5031419;28;20029;-76
2022/12/16 03:24:38;;;;;;;63.95;25.95;;;3.90;92.90;;;;;;5030307;28;20030;-75
2022/12/16 03:27:19;;;;;;;57.33;26.38;;;3.90;93.10;;;;;;5029467;28;20387;-75
2022/12/16 03:30:08;;;;;;;60.72;26.98;;;4.00;92.80;;;;;;5026448;28;20037;-75
2022/12/16 03:32:52;;;;;;;70.35;31.95;;;3.90;92.60;;;;;;5031386;28;20492;-75
2022/12/16 03:35:22;;;;;;;65.60;28.00;;;4.00;92.80;;;;;;5032755;28;20756;-76
2022/12/16 03:37:51;;;;;;;56.10;26.90;;;3.90;92.70;;;;;;5030041;28;20091;-76
2022/12/16 03:40:18;;;;;;;71.95;29.17;;;3.90;93.10;;;;;;5030790;28;20045;-75
2022/12/16 03:42:44;;;;;;;69.97;28.52;;;3.90;93.20;;;;;;5028535;28;20036;-77
2022/12/16 03:45:18;;;;;;;67.53;30.27;;;3.90;93.20;;;;;;5031057;28;20969;-76
2022/12/16 03:47:49;;;;;;;74.05;30.55;;;3.80;93.40;;;;;;5023757;28;20283;-75
2022/12/16 03:50:15;;;;;;;74.53;30.25;;;3.80;93.90;;;;;;5031966;28;20098;-76
2022/12/16 03:52:41;;;;;;;68.80;30.13;;;3.80;93.40;;;;;;5030544;28;20558;-76
2022/12/16 03:55:07;;;;;;;72.43;30.67;;;3.90;93.50;;;;;;5029243;28;20045;-76
2022/12/16 03:57:32;;;;;;;73.25;32.78;;;3.80;93.30;;;;;;5031322;28;20040;-74
2022/12/16 03:59:58;;;;;;;78.17;30.43;;;3.80;93.30;;;;;;5029515;28;20045;-75
2022/12/16 04:02:23;;;;;;;79.60;31.90;;;3.80;93.10;;;;;;5029993;28;20025;-75
2022/12/16 04:04:49;;;;;;;72.35;30.23;;;3.80;93.70;;;;;;5028492;28;20037;-76
2022/12/16 04:07:21;;;;;;;75.20;30.80;;;3.80;93.30;;;;;;5030988;28;20108;-75
2022/12/16 04:09:50;;;;;;;60.83;28.20;;;3.80;93.20;;;;;;5027867;28;20030;-75
2022/12/16 04:27:23;;;;;;;58.08;26.15;;;3.50;93.00;;;;;;5029315;28;20798;-75
2022/12/16 04:29:21;;;;;;;53.53;26.33;;;3.50;93.20;;;;;;5030628;28;20041;-75
2022/12/16 04:31:47;;;;;;;57.73;27.97;;;3.60;93.00;;;;;;5030222;28;20030;-76
2022/12/16 04:34:25;;;;;;;57.78;26.70;;;3.70;93.10;;;;;;5028449;28;20057;-75
